sensor_id;sensor_type;location;lat;lon;timestamp;pressure;altitude;pressure_sealevel;temperature;humidity
70971;BME280;58632;51.718;19.446;2023-03-05T00:01:05;99211.45;;;-5.75;100.00
70971;BME280;58632;51.718;19.446;2023-03-05T00:03:31;99208.99;;;-5.75;100.00
70971;BME280;58632;51.718;19.446;2023-03-05T00:05:57;99209.08;;;-5.71;100.00
70971;BME280;58632;51.718;19.446;2023-03-05T00:08:22;99212.59;;;-5.65;100.00
70971;BME280;58632;51.718;19.446;2023-03-05T00:10:55;99213.85;;;-5.57;100.00
70971;BME280;58632;51.718;19.446;2023-03-05T00:13:21;99213.30;;;-5.48;100.00
70971;BME280;58632;51.718;19.446;2023-03-05T00:15:47;99209.17;;;-5.42;100.00
70971;BME280;58632;51.718;19.446;2023-03-05T00:18:12;99208.99;;;-5.37;100.00
70971;BME280;58632;51.718;19.446;2023-03-05T00:20:38;99207.45;;;-5.34;100.00
70971;BME280;58632;51.718;19.446;2023-03-05T00:23:04;99208.75;;;-5.33;100.00
70971;BME280;58632;51.718;19.446;2023-03-05T00:25:29;99204.16;;;-5.35;100.00
70971;BME280;58632;51.718;19.446;2023-03-05T00:27:55;99201.70;;;-5.40;100.00
70971;BME280;58632;51.718;19.446;2023-03-05T00:30:20;99197.60;;;-5.47;100.00
70971;BME280;58632;51.718;19.446;2023-03-05T00:32:46;99197.93;;;-5.55;100.00
70971;BME280;58632;51.718;19.446;2023-03-05T00:35:12;99195.84;;;-5.65;100.00
70971;BME280;58632;51.718;19.446;2023-03-05T00:37:37;99192.73;;;-5.75;100.00
70971;BME280;58632;51.718;19.446;2023-03-05T00:40:03;99189.25;;;-5.84;100.00
70971;BME280;58632;51.718;19.446;2023-03-05T00:42:28;99187.03;;;-5.93;100.00
70971;BME280;58632;51.718;19.446;2023-03-05T00:44:54;99180.55;;;-6.03;100.00
70971;BME280;58632;51.718;19.446;2023-03-05T00:47:20;99175.80;;;-6.09;100.00
70971;BME280;58632;51.718;19.446;2023-03-05T00:49:45;99174.60;;;-6.12;100.00
70971;BME280;58632;51.718;19.446;2023-03-05T00:52:11;99173.83;;;-6.14;100.00
70971;BME280;58632;51.718;19.446;2023-03-05T00:54:36;99169.63;;;-6.13;100.00
70971;BME280;58632;51.718;19.446;2023-03-05T00:57:02;99165.48;;;-6.11;100.00
70971;BME280;58632;51.718;19.446;2023-03-05T00:59:29;99163.09;;;-6.04;100.00
70971;BME280;58632;51.718;19.446;2023-03-05T01:01:55;99160.74;;;-5.97;100.00
70971;BME280;58632;51.718;19.446;2023-03-05T01:04:21;99160.04;;;-5.90;100.00
70971;BME280;58632;51.718;19.446;2023-03-05T01:06:46;99161.73;;;-5.84;100.00
70971;BME280;58632;51.718;19.446;2023-03-05T01:09:12;99158.34;;;-5.81;100.00
70971;BME280;58632;51.718;19.446;2023-03-05T01:11:37;99154.05;;;-5.79;100.00
70971;BME280;58632;51.718;19.446;2023-03-05T01:14:03;99150.02;;;-5.81;100.00
70971;BME280;58632;51.718;19.446;2023-03-05T01:16:28;99143.24;;;-5.85;100.00
70971;BME280;58632;51.718;19.446;2023-03-05T01:18:54;99140.88;;;-5.91;100.00
70971;BME280;58632;51.718;19.446;2023-03-05T01:21:20;99143.41;;;-6.00;100.00
70971;BME280;58632;51.718;19.446;2023-03-05T01:23:46;99141.08;;;-6.08;100.00
70971;BME280;58632;51.718;19.446;2023-03-05T01:26:11;99141.66;;;-6.16;100.00
70971;BME280;58632;51.718;19.446;2023-03-05T01:28:37;99139.92;;;-6.24;100.00
70971;BME280;58632;51.718;19.446;2023-03-05T01:31:10;99136.81;;;-6.31;100.00
70971;BME280;58632;51.718;19.446;2023-03-05T01:33:35;99134.78;;;-6.38;100.00
70971;BME280;58632;51.718;19.446;2023-03-05T01:36:01;99131.90;;;-6.41;100.00
70971;BME280;58632;51.718;19.446;2023-03-05T01:38:27;99131.24;;;-6.41;100.00
70971;BME280;58632;51.718;19.446;2023-03-05T01:40:52;99129.42;;;-6.39;100.00
70971;BME280;58632;51.718;19.446;2023-03-05T01:43:23;99126.05;;;-6.35;100.00
70971;BME280;58632;51.718;19.446;2023-03-05T01:48:33;99124.52;;;-6.21;100.00
70971;BME280;58632;51.718;19.446;2023-03-05T01:50:59;99124.85;;;-6.13;100.00
70971;BME280;58632;51.718;19.446;2023-03-05T01:53:25;99120.31;;;-6.04;100.00
70971;BME280;58632;51.718;19.446;2023-03-05T01:55:50;99113.61;;;-5.98;100.00
70971;BME280;58632;51.718;19.446;2023-03-05T01:58:16;99112.82;;;-5.91;100.00
70971;BME280;58632;51.718;19.446;2023-03-05T02:00:43;99106.97;;;-5.88;100.00
70971;BME280;58632;51.718;19.446;2023-03-05T02:03:10;99106.85;;;-5.86;100.00
70971;BME280;58632;51.718;19.446;2023-03-05T02:05:37;99103.52;;;-5.87;100.00
70971;BME280;58632;51.718;19.446;2023-03-05T02:08:06;99098.77;;;-5.92;100.00
70971;BME280;58632;51.718;19.446;2023-03-05T02:13:01;99095.73;;;-6.04;100.00
70971;BME280;58632;51.718;19.446;2023-03-05T02:15:28;99090.83;;;-6.14;100.00
70971;BME280;58632;51.718;19.446;2023-03-05T02:17:54;99091.23;;;-6.24;100.00
70971;BME280;58632;51.718;19.446;2023-03-05T02:20:21;99089.35;;;-6.35;100.00
70971;BME280;58632;51.718;19.446;2023-03-05T02:22:47;99086.73;;;-6.46;100.00
70971;BME280;58632;51.718;19.446;2023-03-05T02:27:42;99081.28;;;-6.57;100.00
70971;BME280;58632;51.718;19.446;2023-03-05T02:30:09;99077.35;;;-6.61;100.00
70971;BME280;58632;51.718;19.446;2023-03-05T02:32:35;99076.91;;;-6.61;100.00
70971;BME280;58632;51.718;19.446;2023-03-05T02:35:00;99076.27;;;-6.59;100.00
70971;BME280;58632;51.718;19.446;2023-03-05T02:37:26;99075.29;;;-6.56;100.00
70971;BME280;58632;51.718;19.446;2023-03-05T02:39:52;99073.67;;;-6.52;100.00
70971;BME280;58632;51.718;19.446;2023-03-05T02:42:17;99072.51;;;-6.46;100.00
70971;BME280;58632;51.718;19.446;2023-03-05T02:44:43;99067.13;;;-6.40;100.00
70971;BME280;58632;51.718;19.446;2023-03-05T02:47:08;99061.16;;;-6.33;100.00
70971;BME280;58632;51.718;19.446;2023-03-05T02:49:34;99056.50;;;-6.29;100.00
70971;BME280;58632;51.718;19.446;2023-03-05T02:52:00;99056.04;;;-6.28;100.00
70971;BME280;58632;51.718;19.446;2023-03-05T02:54:26;99056.04;;;-6.33;100.00
70971;BME280;58632;51.718;19.446;2023-03-05T02:56:52;99053.08;;;-6.41;100.00
70971;BME280;58632;51.718;19.446;2023-03-05T02:59:17;99053.45;;;-6.46;100.00
70971;BME280;58632;51.718;19.446;2023-03-05T03:01:43;99057.09;;;-6.53;100.00
70971;BME280;58632;51.718;19.446;2023-03-05T03:04:08;99053.04;;;-6.60;100.00
70971;BME280;58632;51.718;19.446;2023-03-05T03:06:34;99050.25;;;-6.71;100.00
70971;BME280;58632;51.718;19.446;2023-03-05T03:08:59;99051.63;;;-6.80;100.00
70971;BME280;58632;51.718;19.446;2023-03-05T03:11:25;99054.80;;;-6.88;100.00
70971;BME280;58632;51.718;19.446;2023-03-05T03:13:50;99055.42;;;-6.95;100.00
70971;BME280;58632;51.718;19.446;2023-03-05T03:16:16;99061.31;;;-6.98;100.00
70971;BME280;58632;51.718;19.446;2023-03-05T03:18:42;99067.64;;;-6.99;100.00
70971;BME280;58632;51.718;19.446;2023-03-05T03:21:14;99064.27;;;-6.97;100.00
70971;BME280;58632;51.718;19.446;2023-03-05T03:23:40;99063.73;;;-6.91;100.00
70971;BME280;58632;51.718;19.446;2023-03-05T03:26:06;99061.04;;;-6.85;100.00
70971;BME280;58632;51.718;19.446;2023-03-05T03:28:31;99056.17;;;-6.77;100.00
70971;BME280;58632;51.718;19.446;2023-03-05T03:30:57;99058.09;;;-6.69;100.00
70971;BME280;58632;51.718;19.446;2023-03-05T03:33:22;99060.09;;;-6.57;100.00
70971;BME280;58632;51.718;19.446;2023-03-05T03:35:48;99055.33;;;-6.49;100.00
70971;BME280;58632;51.718;19.446;2023-03-05T03:38:13;99049.77;;;-6.44;100.00
70971;BME280;58632;51.718;19.446;2023-03-05T03:40:39;99045.30;;;-6.41;100.00
70971;BME280;58632;51.718;19.446;2023-03-05T03:43:05;99046.52;;;-6.40;100.00
70971;BME280;58632;51.718;19.446;2023-03-05T03:45:31;99042.31;;;-6.41;100.00
70971;BME280;58632;51.718;19.446;2023-03-05T03:47:57;99037.73;;;-6.45;100.00
70971;BME280;58632;51.718;19.446;2023-03-05T03:50:22;99036.68;;;-6.51;100.00
70971;BME280;58632;51.718;19.446;2023-03-05T03:52:49;99038.76;;;-6.58;100.00
70971;BME280;58632;51.718;19.446;2023-03-05T03:55:14;99038.05;;;-6.65;100.00
70971;BME280;58632;51.718;19.446;2023-03-05T03:57:40;99035.48;;;-6.74;100.00
70971;BME280;58632;51.718;19.446;2023-03-05T04:00:07;99034.46;;;-6.83;100.00
70971;BME280;58632;51.718;19.446;2023-03-05T04:02:34;99032.34;;;-6.90;100.00
70971;BME280;58632;51.718;19.446;2023-03-05T04:04:59;99030.55;;;-6.94;100.00
70971;BME280;58632;51.718;19.446;2023-03-05T04:07:25;99023.51;;;-6.96;100.00
70971;BME280;58632;51.718;19.446;2023-03-05T04:09:51;99023.23;;;-6.97;100.00
70971;BME280;58632;51.718;19.446;2023-03-05T04:12:16;99024.54;;;-6.94;100.00
70971;BME280;58632;51.718;19.446;2023-03-05T04:14:43;99023.52;;;-6.88;100.00
70971;BME280;58632;51.718;19.446;2023-03-05T04:17:09;99019.79;;;-6.82;100.00
70971;BME280;58632;51.718;19.446;2023-03-05T04:19:35;99013.92;;;-6.73;100.00
70971;BME280;58632;51.718;19.446;2023-03-05T04:22:00;99010.60;;;-6.66;100.00
70971;BME280;58632;51.718;19.446;2023-03-05T04:24:26;99012.45;;;-6.55;100.00
70971;BME280;58632;51.718;19.446;2023-03-05T04:26:51;99007.33;;;-6.47;100.00
70971;BME280;58632;51.718;19.446;2023-03-05T04:29:17;99003.15;;;-6.41;100.00
70971;BME280;58632;51.718;19.446;2023-03-05T04:31:42;99003.59;;;-6.34;100.00
70971;BME280;58632;51.718;19.446;2023-03-05T04:34:08;98998.26;;;-6.29;100.00
70971;BME280;58632;51.718;19.446;2023-03-05T04:36:33;98998.64;;;-6.28;100.00
70971;BME280;58632;51.718;19.446;2023-03-05T04:38:59;98995.75;;;-6.29;100.00
70971;BME280;58632;51.718;19.446;2023-03-05T04:41:25;98995.69;;;-6.30;100.00
70971;BME280;58632;51.718;19.446;2023-03-05T04:43:50;98992.95;;;-6.33;100.00
70971;BME280;58632;51.718;19.446;2023-03-05T04:46:16;98990.80;;;-6.39;100.00
70971;BME280;58632;51.718;19.446;2023-03-05T04:48:42;98988.10;;;-6.45;100.00
70971;BME280;58632;51.718;19.446;2023-03-05T04:51:07;98983.48;;;-6.50;100.00
70971;BME280;58632;51.718;19.446;2023-03-05T04:53:33;98979.89;;;-6.58;100.00
70971;BME280;58632;51.718;19.446;2023-03-05T04:55:59;98975.41;;;-6.63;100.00
70971;BME280;58632;51.718;19.446;2023-03-05T04:58:25;98974.88;;;-6.65;100.00
70971;BME280;58632;51.718;19.446;2023-03-05T05:00:51;98971.96;;;-6.66;100.00
70971;BME280;58632;51.718;19.446;2023-03-05T05:03:17;98972.19;;;-6.66;100.00
70971;BME280;58632;51.718;19.446;2023-03-05T05:05:42;98972.14;;;-6.64;100.00
70971;BME280;58632;51.718;19.446;2023-03-05T05:08:09;98970.00;;;-6.57;100.00
70971;BME280;58632;51.718;19.446;2023-03-05T05:10:34;98964.15;;;-6.50;100.00
70971;BME280;58632;51.718;19.446;2023-03-05T05:13:03;98965.50;;;-6.47;100.00
70971;BME280;58632;51.718;19.446;2023-03-05T05:15:29;98965.57;;;-6.42;100.00
70971;BME280;58632;51.718;19.446;2023-03-05T05:17:56;98960.33;;;-6.36;100.00
70971;BME280;58632;51.718;19.446;2023-03-05T05:20:21;98956.44;;;-6.33;100.00
70971;BME280;58632;51.718;19.446;2023-03-05T05:22:47;98957.38;;;-6.31;100.00
70971;BME280;58632;51.718;19.446;2023-03-05T05:25:12;98942.02;;;-6.27;100.00
70971;BME280;58632;51.718;19.446;2023-03-05T05:27:38;98930.45;;;-6.27;100.00
70971;BME280;58632;51.718;19.446;2023-03-05T05:30:04;98921.99;;;-6.29;100.00
70971;BME280;58632;51.718;19.446;2023-03-05T05:32:30;98933.73;;;-6.31;100.00
70971;BME280;58632;51.718;19.446;2023-03-05T05:34:56;98935.14;;;-6.30;100.00
70971;BME280;58632;51.718;19.446;2023-03-05T05:37:22;98939.56;;;-6.23;100.00
70971;BME280;58632;51.718;19.446;2023-03-05T05:39:48;98933.39;;;-6.15;100.00
70971;BME280;58632;51.718;19.446;2023-03-05T05:42:18;98940.42;;;-6.08;100.00
70971;BME280;58632;51.718;19.446;2023-03-05T05:44:44;98945.39;;;-5.94;100.00
70971;BME280;58632;51.718;19.446;2023-03-05T05:47:12;98947.85;;;-5.69;100.00
70971;BME280;58632;51.718;19.446;2023-03-05T05:49:37;98950.89;;;-5.45;100.00
70971;BME280;58632;51.718;19.446;2023-03-05T05:52:03;98948.52;;;-5.17;100.00
70971;BME280;58632;51.718;19.446;2023-03-05T05:54:29;98949.23;;;-4.87;100.00
70971;BME280;58632;51.718;19.446;2023-03-05T05:56:54;98954.51;;;-4.62;100.00
70971;BME280;58632;51.718;19.446;2023-03-05T05:59:20;98950.64;;;-4.50;100.00
70971;BME280;58632;51.718;19.446;2023-03-05T06:01:45;98945.33;;;-4.45;100.00
70971;BME280;58632;51.718;19.446;2023-03-05T06:04:11;98946.85;;;-4.39;100.00
70971;BME280;58632;51.718;19.446;2023-03-05T06:06:37;98941.42;;;-4.31;100.00
70971;BME280;58632;51.718;19.446;2023-03-05T06:09:02;98945.20;;;-4.23;100.00
70971;BME280;58632;51.718;19.446;2023-03-05T06:11:28;98936.34;;;-4.15;100.00
70971;BME280;58632;51.718;19.446;2023-03-05T06:13:54;98941.39;;;-4.10;100.00
70971;BME280;58632;51.718;19.446;2023-03-05T06:16:21;98930.76;;;-4.05;100.00
70971;BME280;58632;51.718;19.446;2023-03-05T06:18:48;98933.20;;;-3.98;100.00
70971;BME280;58632;51.718;19.446;2023-03-05T06:21:14;98933.29;;;-3.92;100.00
70971;BME280;58632;51.718;19.446;2023-03-05T06:23:41;98931.02;;;-3.85;100.00
70971;BME280;58632;51.718;19.446;2023-03-05T06:26:07;98931.66;;;-3.72;100.00
70971;BME280;58632;51.718;19.446;2023-03-05T06:28:33;98923.11;;;-3.58;100.00
70971;BME280;58632;51.718;19.446;2023-03-05T06:30:59;98930.83;;;-3.46;100.00
70971;BME280;58632;51.718;19.446;2023-03-05T06:33:25;98921.01;;;-3.34;100.00
70971;BME280;58632;51.718;19.446;2023-03-05T06:35:51;98924.10;;;-3.23;100.00
70971;BME280;58632;51.718;19.446;2023-03-05T06:38:16;98917.09;;;-3.13;100.00
70971;BME280;58632;51.718;19.446;2023-03-05T06:40:42;98916.86;;;-3.02;100.00
70971;BME280;58632;51.718;19.446;2023-03-05T06:43:08;98912.09;;;-2.91;100.00
70971;BME280;58632;51.718;19.446;2023-03-05T06:45:33;98913.17;;;-2.84;100.00
70971;BME280;58632;51.718;19.446;2023-03-05T06:47:59;98912.36;;;-2.78;100.00
70971;BME280;58632;51.718;19.446;2023-03-05T06:50:24;98911.05;;;-2.74;100.00
70971;BME280;58632;51.718;19.446;2023-03-05T06:52:50;98908.38;;;-2.67;100.00
70971;BME280;58632;51.718;19.446;2023-03-05T06:55:16;98914.60;;;-2.59;100.00
70971;BME280;58632;51.718;19.446;2023-03-05T06:57:42;98904.67;;;-2.49;100.00
70971;BME280;58632;51.718;19.446;2023-03-05T07:00:08;98910.00;;;-2.41;100.00
70971;BME280;58632;51.718;19.446;2023-03-05T07:02:35;98900.51;;;-2.33;100.00
70971;BME280;58632;51.718;19.446;2023-03-05T07:05:01;98900.23;;;-2.24;100.00
70971;BME280;58632;51.718;19.446;2023-03-05T07:07:27;98900.98;;;-2.17;100.00
70971;BME280;58632;51.718;19.446;2023-03-05T07:09:53;98890.89;;;-2.07;100.00
70971;BME280;58632;51.718;19.446;2023-03-05T07:12:18;98899.52;;;-1.95;100.00
70971;BME280;58632;51.718;19.446;2023-03-05T07:14:44;98893.36;;;-1.84;100.00
70971;BME280;58632;51.718;19.446;2023-03-05T07:17:10;98890.40;;;-1.74;100.00
70971;BME280;58632;51.718;19.446;2023-03-05T07:19:36;98890.36;;;-1.66;100.00
70971;BME280;58632;51.718;19.446;2023-03-05T07:22:02;98881.02;;;-1.62;100.00
70971;BME280;58632;51.718;19.446;2023-03-05T07:24:27;98888.18;;;-1.57;100.00
70971;BME280;58632;51.718;19.446;2023-03-05T07:26:56;98876.45;;;-1.51;100.00
70971;BME280;58632;51.718;19.446;2023-03-05T07:29:23;98878.48;;;-1.49;100.00
70971;BME280;58632;51.718;19.446;2023-03-05T07:31:49;98873.77;;;-1.43;100.00
70971;BME280;58632;51.718;19.446;2023-03-05T07:34:14;98878.08;;;-1.38;100.00
70971;BME280;58632;51.718;19.446;2023-03-05T07:36:40;98876.16;;;-1.31;100.00
70971;BME280;58632;51.718;19.446;2023-03-05T07:39:07;98876.01;;;-1.23;100.00
70971;BME280;58632;51.718;19.446;2023-03-05T07:41:33;98876.98;;;-1.18;100.00
70971;BME280;58632;51.718;19.446;2023-03-05T07:43:58;98872.64;;;-1.10;100.00
70971;BME280;58632;51.718;19.446;2023-03-05T07:46:25;98866.95;;;-0.96;100.00
70971;BME280;58632;51.718;19.446;2023-03-05T07:48:51;98860.88;;;-0.84;100.00
70971;BME280;58632;51.718;19.446;2023-03-05T07:51:18;98862.21;;;-0.73;100.00
70971;BME280;58632;51.718;19.446;2023-03-05T07:53:45;98858.33;;;-0.59;100.00
70971;BME280;58632;51.718;19.446;2023-03-05T07:56:10;98852.21;;;-0.45;100.00
70971;BME280;58632;51.718;19.446;2023-03-05T07:58:36;98855.38;;;-0.35;100.00
70971;BME280;58632;51.718;19.446;2023-03-05T08:01:02;98858.38;;;-0.29;100.00
70971;BME280;58632;51.718;19.446;2023-03-05T08:03:28;98858.05;;;-0.29;100.00
70971;BME280;58632;51.718;19.446;2023-03-05T08:05:53;98857.48;;;-0.30;100.00
70971;BME280;58632;51.718;19.446;2023-03-05T08:08:19;98854.51;;;-0.29;100.00
70971;BME280;58632;51.718;19.446;2023-03-05T08:10:45;98853.69;;;-0.26;100.00
70971;BME280;58632;51.718;19.446;2023-03-05T08:13:10;98854.60;;;-0.25;100.00
70971;BME280;58632;51.718;19.446;2023-03-05T08:15:36;98846.59;;;-0.25;100.00
70971;BME280;58632;51.718;19.446;2023-03-05T08:18:02;98848.02;;;-0.22;100.00
70971;BME280;58632;51.718;19.446;2023-03-05T08:20:28;98842.36;;;-0.20;100.00
70971;BME280;58632;51.718;19.446;2023-03-05T08:22:54;98840.25;;;-0.19;100.00
70971;BME280;58632;51.718;19.446;2023-03-05T08:25:19;98838.15;;;-0.14;100.00
70971;BME280;58632;51.718;19.446;2023-03-05T08:27:45;98837.26;;;-0.02;100.00
70971;BME280;58632;51.718;19.446;2023-03-05T08:30:13;98837.67;;;0.15;100.00
70971;BME280;58632;51.718;19.446;2023-03-05T08:32:39;98837.63;;;0.32;100.00
70971;BME280;58632;51.718;19.446;2023-03-05T08:35:04;98834.52;;;0.47;100.00
70971;BME280;58632;51.718;19.446;2023-03-05T08:37:31;98835.63;;;0.61;100.00
70971;BME280;58632;51.718;19.446;2023-03-05T08:39:56;98832.80;;;0.73;100.00
70971;BME280;58632;51.718;19.446;2023-03-05T08:42:22;98827.63;;;0.79;100.00
70971;BME280;58632;51.718;19.446;2023-03-05T08:44:47;98825.04;;;0.80;100.00
70971;BME280;58632;51.718;19.446;2023-03-05T08:47:13;98823.55;;;0.78;100.00
70971;BME280;58632;51.718;19.446;2023-03-05T08:49:38;98820.67;;;0.80;100.00
70971;BME280;58632;51.718;19.446;2023-03-05T08:52:04;98816.09;;;0.87;100.00
70971;BME280;58632;51.718;19.446;2023-03-05T08:54:30;98814.39;;;0.91;100.00
70971;BME280;58632;51.718;19.446;2023-03-05T08:56:55;98812.96;;;0.88;100.00
70971;BME280;58632;51.718;19.446;2023-03-05T08:59:21;98807.84;;;0.81;100.00
70971;BME280;58632;51.718;19.446;2023-03-05T09:01:47;98806.36;;;0.78;100.00
70971;BME280;58632;51.718;19.446;2023-03-05T09:04:12;98808.71;;;0.73;100.00
70971;BME280;58632;51.718;19.446;2023-03-05T09:06:39;98802.58;;;0.73;100.00
70971;BME280;58632;51.718;19.446;2023-03-05T09:09:05;98801.27;;;0.74;100.00
70971;BME280;58632;51.718;19.446;2023-03-05T09:11:32;98803.68;;;0.81;100.00
70971;BME280;58632;51.718;19.446;2023-03-05T09:14:03;98801.06;;;0.86;100.00
70971;BME280;58632;51.718;19.446;2023-03-05T09:16:29;98800.38;;;0.97;100.00
70971;BME280;58632;51.718;19.446;2023-03-05T09:18:54;98799.33;;;1.06;100.00
70971;BME280;58632;51.718;19.446;2023-03-05T09:21:20;98801.48;;;1.06;100.00
70971;BME280;58632;51.718;19.446;2023-03-05T09:23:46;98797.18;;;1.11;100.00
70971;BME280;58632;51.718;19.446;2023-03-05T09:26:12;98795.27;;;1.20;100.00
70971;BME280;58632;51.718;19.446;2023-03-05T09:28:40;98794.48;;;1.27;100.00
70971;BME280;58632;51.718;19.446;2023-03-05T09:31:06;98793.40;;;1.34;100.00
70971;BME280;58632;51.718;19.446;2023-03-05T09:33:32;98791.49;;;1.37;100.00
70971;BME280;58632;51.718;19.446;2023-03-05T09:35:58;98792.09;;;1.37;100.00
70971;BME280;58632;51.718;19.446;2023-03-05T09:38:24;98792.30;;;1.43;100.00
70971;BME280;58632;51.718;19.446;2023-03-05T09:43:40;98788.09;;;1.57;100.00
70971;BME280;58632;51.718;19.446;2023-03-05T09:46:15;98786.86;;;1.51;100.00
70971;BME280;58632;51.718;19.446;2023-03-05T09:48:47;98780.78;;;1.48;100.00
70971;BME280;58632;51.718;19.446;2023-03-05T09:51:15;98775.05;;;1.49;100.00
70971;BME280;58632;51.718;19.446;2023-03-05T09:53:46;98775.17;;;1.55;100.00
70971;BME280;58632;51.718;19.446;2023-03-05T09:56:33;98767.64;;;1.65;100.00
70971;BME280;58632;51.718;19.446;2023-03-05T10:01:27;98761.86;;;1.85;100.00
70971;BME280;58632;51.718;19.446;2023-03-05T10:03:58;98755.50;;;1.92;100.00
70971;BME280;58632;51.718;19.446;2023-03-05T10:06:29;98748.48;;;1.96;100.00
70971;BME280;58632;51.718;19.446;2023-03-05T10:11:33;98742.99;;;2.07;100.00
70971;BME280;58632;51.718;19.446;2023-03-05T10:14:02;98736.47;;;2.14;100.00
70971;BME280;58632;51.718;19.446;2023-03-05T10:21:55;98730.02;;;2.26;100.00
70971;BME280;58632;51.718;19.446;2023-03-05T10:26:57;98721.20;;;2.45;100.00
70971;BME280;58632;51.718;19.446;2023-03-05T10:42:18;98706.09;;;2.44;100.00
70971;BME280;58632;51.718;19.446;2023-03-05T10:44:51;98700.25;;;2.37;100.00
70971;BME280;58632;51.718;19.446;2023-03-05T10:47:25;98694.69;;;2.30;100.00
70971;BME280;58632;51.718;19.446;2023-03-05T10:49:53;98689.48;;;2.20;100.00
70971;BME280;58632;51.718;19.446;2023-03-05T10:52:39;98689.91;;;2.06;100.00
70971;BME280;58632;51.718;19.446;2023-03-05T10:55:14;98686.95;;;1.98;100.00
70971;BME280;58632;51.718;19.446;2023-03-05T10:57:40;98683.77;;;1.94;100.00
70971;BME280;58632;51.718;19.446;2023-03-05T11:02:36;98679.42;;;1.76;100.00
70971;BME280;58632;51.718;19.446;2023-03-05T11:05:34;98676.10;;;1.67;100.00
70971;BME280;58632;51.718;19.446;2023-03-05T11:08:08;98668.97;;;1.63;100.00
70971;BME280;58632;51.718;19.446;2023-03-05T11:10:42;98668.57;;;1.60;100.00
70971;BME280;58632;51.718;19.446;2023-03-05T11:13:23;98669.34;;;1.55;100.00
70971;BME280;58632;51.718;19.446;2023-03-05T11:15:59;98667.25;;;1.54;100.00
70971;BME280;58632;51.718;19.446;2023-03-05T11:18:26;98669.26;;;1.44;100.00
70971;BME280;58632;51.718;19.446;2023-03-05T11:20:53;98665.88;;;1.34;100.00
70971;BME280;58632;51.718;19.446;2023-03-05T11:23:30;98665.05;;;1.31;100.00
70971;BME280;58632;51.718;19.446;2023-03-05T11:25:57;98671.15;;;1.26;100.00
70971;BME280;58632;51.718;19.446;2023-03-05T11:28:30;98670.77;;;1.12;100.00
70971;BME280;58632;51.718;19.446;2023-03-05T11:31:01;98664.39;;;1.05;100.00
70971;BME280;58632;51.718;19.446;2023-03-05T11:33:27;98664.36;;;1.07;100.00
70971;BME280;58632;51.718;19.446;2023-03-05T11:36:08;98662.33;;;1.18;100.00
70971;BME280;58632;51.718;19.446;2023-03-05T11:38:36;98658.33;;;1.45;100.00
70971;BME280;58632;51.718;19.446;2023-03-05T11:41:08;98656.27;;;1.76;100.00
70971;BME280;58632;51.718;19.446;2023-03-05T11:43:34;98654.05;;;1.91;100.00
70971;BME280;58632;51.718;19.446;2023-03-05T11:46:02;98654.21;;;2.02;100.00
70971;BME280;58632;51.718;19.446;2023-03-05T11:48:33;98657.05;;;2.11;100.00
70971;BME280;58632;51.718;19.446;2023-03-05T11:51:00;98652.16;;;2.24;100.00
70971;BME280;58632;51.718;19.446;2023-03-05T11:53:27;98653.64;;;2.29;100.00
70971;BME280;58632;51.718;19.446;2023-03-05T11:56:04;98650.23;;;2.22;100.00
70971;BME280;58632;51.718;19.446;2023-03-05T11:58:44;98647.76;;;2.15;100.00
70971;BME280;58632;51.718;19.446;2023-03-05T12:01:33;98648.02;;;2.19;100.00
70971;BME280;58632;51.718;19.446;2023-03-05T12:03:56;98643.98;;;2.19;100.00
70971;BME280;58632;51.718;19.446;2023-03-05T12:08:54;98646.17;;;2.23;100.00
70971;BME280;58632;51.718;19.446;2023-03-05T12:11:27;98634.92;;;2.24;100.00
70971;BME280;58632;51.718;19.446;2023-03-05T12:13:56;98637.73;;;2.34;100.00
70971;BME280;58632;51.718;19.446;2023-03-05T12:16:25;98635.04;;;2.33;100.00
70971;BME280;58632;51.718;19.446;2023-03-05T12:21:37;98636.53;;;1.97;100.00
70971;BME280;58632;51.718;19.446;2023-03-05T12:29:38;98637.96;;;1.71;100.00
70971;BME280;58632;51.718;19.446;2023-03-05T12:32:05;98637.63;;;1.77;100.00
70971;BME280;58632;51.718;19.446;2023-03-05T12:39:59;98627.27;;;1.88;100.00
70971;BME280;58632;51.718;19.446;2023-03-05T12:47:34;98627.55;;;1.84;100.00
70971;BME280;58632;51.718;19.446;2023-03-05T12:50:00;98624.75;;;1.86;100.00
70971;BME280;58632;51.718;19.446;2023-03-05T12:52:27;98625.77;;;1.87;100.00
70971;BME280;58632;51.718;19.446;2023-03-05T12:55:13;98625.88;;;1.87;100.00
70971;BME280;58632;51.718;19.446;2023-03-05T12:57:39;98624.57;;;1.92;100.00
70971;BME280;58632;51.718;19.446;2023-03-05T13:00:17;98623.75;;;1.95;100.00
70971;BME280;58632;51.718;19.446;2023-03-05T13:02:47;98626.28;;;1.96;100.00
70971;BME280;58632;51.718;19.446;2023-03-05T13:05:20;98623.70;;;1.99;100.00
70971;BME280;58632;51.718;19.446;2023-03-05T13:07:47;98624.73;;;2.01;100.00
70971;BME280;58632;51.718;19.446;2023-03-05T13:10:22;98615.23;;;1.95;100.00
70971;BME280;58632;51.718;19.446;2023-03-05T13:12:49;98615.27;;;1.78;100.00
70971;BME280;58632;51.718;19.446;2023-03-05T13:15:17;98614.26;;;1.72;100.00
70971;BME280;58632;51.718;19.446;2023-03-05T13:17:53;98616.77;;;1.63;100.00
70971;BME280;58632;51.718;19.446;2023-03-05T13:20:24;98616.13;;;1.51;100.00
70971;BME280;58632;51.718;19.446;2023-03-05T13:25:28;98617.28;;;1.37;100.00
70971;BME280;58632;51.718;19.446;2023-03-05T13:28:01;98621.80;;;1.29;100.00
70971;BME280;58632;51.718;19.446;2023-03-05T13:30:27;98630.10;;;1.31;100.00
70971;BME280;58632;51.718;19.446;2023-03-05T13:32:54;98625.60;;;1.44;100.00
70971;BME280;58632;51.718;19.446;2023-03-05T13:35:20;98626.38;;;1.56;100.00
70971;BME280;58632;51.718;19.446;2023-03-05T13:37:47;98623.82;;;1.61;100.00
70971;BME280;58632;51.718;19.446;2023-03-05T13:42:41;98624.92;;;1.55;100.00
70971;BME280;58632;51.718;19.446;2023-03-05T13:45:19;98624.49;;;1.52;100.00
70971;BME280;58632;51.718;19.446;2023-03-05T13:47:53;98624.48;;;1.43;100.00